Time;durP1;ratioP1;P1;durP2;ratioP2;P2;SDS_P1;SDS_P2;PMS_P1;PMS_P2;Temp;Humidity;BMP_temperature;BMP_pressure;BME280_temperature;BME280_humidity;BME280_pressure;Samples;Min_cycle;Max_cycle;Signal;HPM_P1;HPM_P2
2023/06/07 00:01:42;;;;;;;2.35;2.10;;;21.60;73.00;;;;;;5046943;28;20702;-63
2023/06/07 00:04:11;;;;;;;3.08;2.67;;;21.60;73.00;;;;;;5041582;28;20191;-61
2023/06/07 00:06:40;;;;;;;2.75;2.55;;;21.60;72.90;;;;;;5045014;28;20277;-62
2023/06/07 00:09:08;;;;;;;2.72;2.53;;;21.70;73.10;;;;;;5055261;28;20229;-63
2023/06/07 00:11:35;;;;;;;3.92;3.63;;;21.60;73.00;;;;;;5041151;28;20672;-63
2023/06/07 00:14:01;;;;;;;2.80;2.60;;;21.60;72.90;;;;;;5042639;28;20200;-63
2023/06/07 00:16:28;;;;;;;3.20;2.92;;;21.60;72.90;;;;;;5048032;28;20257;-62
2023/06/07 00:18:55;;;;;;;2.92;2.72;;;21.60;72.90;;;;;;5049706;28;20202;-63
2023/06/07 00:21:22;;;;;;;2.80;2.60;;;21.60;72.90;;;;;;5055454;28;20684;-63
2023/06/07 00:23:50;;;;;;;2.90;2.60;;;21.60;73.80;;;;;;5051112;28;20214;-63
2023/06/07 00:26:17;;;;;;;2.60;2.40;;;21.60;72.90;;;;;;5053056;28;20348;-63
2023/06/07 00:28:44;;;;;;;3.42;3.13;;;21.60;73.70;;;;;;5047809;28;20663;-63
2023/06/07 00:31:10;;;;;;;3.05;2.75;;;21.60;72.90;;;;;;5041261;28;20908;-63
2023/06/07 00:33:37;;;;;;;2.78;2.58;;;21.60;72.90;;;;;;5043645;28;20195;-63
2023/06/07 00:36:04;;;;;;;3.45;3.05;;;21.60;73.00;;;;;;5045132;28;20199;-62
2023/06/07 00:38:30;;;;;;;3.05;2.80;;;21.60;72.90;;;;;;5050657;28;20215;-63
2023/06/07 00:40:58;;;;;;;2.97;2.70;;;21.60;72.90;;;;;;5045983;28;20646;-62
2023/06/07 00:43:25;;;;;;;2.67;2.47;;;21.60;72.90;;;;;;5049607;28;20191;-63
2023/06/07 00:45:52;;;;;;;3.17;2.88;;;21.60;72.90;;;;;;5046989;28;20195;-63
2023/06/07 00:48:19;;;;;;;4.93;3.00;;;21.60;72.90;;;;;;5039074;28;20614;-63
2023/06/07 00:50:46;;;;;;;3.10;2.80;;;21.60;72.90;;;;;;5041359;28;20204;-64
2023/06/07 00:53:12;;;;;;;2.78;2.58;;;21.60;72.90;;;;;;5047688;28;20879;-62
2023/06/07 00:55:39;;;;;;;3.03;2.83;;;21.60;72.90;;;;;;5050887;28;20200;-63
2023/06/07 00:58:08;;;;;;;3.38;3.15;;;21.60;73.70;;;;;;5040935;28;20234;-62
2023/06/07 01:00:37;;;;;;;2.78;2.58;;;21.60;73.70;;;;;;5047478;28;20195;-62
2023/06/07 01:03:04;;;;;;;3.42;3.05;;;21.60;72.80;;;;;;5040094;28;20198;-63
2023/06/07 01:05:30;;;;;;;3.28;2.55;;;21.60;72.80;;;;;;5044852;28;20207;-62
2023/06/07 01:07:57;;;;;;;4.65;4.25;;;21.60;72.90;;;;;;5041701;28;20682;-63
2023/06/07 01:10:24;;;;;;;3.10;2.90;;;21.60;72.90;;;;;;5043476;28;20199;-64
2023/06/07 01:12:53;;;;;;;3.25;2.95;;;21.60;72.80;;;;;;5044727;28;20454;-63
2023/06/07 01:15:22;;;;;;;4.05;3.13;;;21.60;72.90;;;;;;5048775;28;20200;-64
2023/06/07 01:17:50;;;;;;;3.00;2.80;;;21.60;72.90;;;;;;5044842;28;20247;-63
2023/06/07 01:20:22;;;;;;;4.28;3.25;;;21.60;72.90;;;;;;5046588;28;20206;-62
2023/06/07 01:22:51;;;;;;;3.67;3.38;;;21.60;72.90;;;;;;5043686;28;20203;-61
2023/06/07 01:25:19;;;;;;;2.90;2.60;;;21.60;72.90;;;;;;5040655;28;20285;-63
2023/06/07 01:27:50;;;;;;;2.75;2.55;;;21.60;72.80;;;;;;5045295;28;20196;-63
2023/06/07 01:30:17;;;;;;;3.22;2.92;;;21.60;72.80;;;;;;5041974;28;20200;-61
2023/06/07 01:32:44;;;;;;;3.00;2.80;;;21.60;72.80;;;;;;5042818;28;20199;-63
2023/06/07 01:35:13;;;;;;;3.00;2.80;;;21.60;72.90;;;;;;5044626;28;20466;-63
2023/06/07 01:37:40;;;;;;;2.30;2.10;;;21.60;72.80;;;;;;5044493;28;20241;-63
2023/06/07 01:40:08;;;;;;;3.05;2.85;;;21.60;72.90;;;;;;5041654;28;20265;-63
2023/06/07 01:42:38;;;;;;;3.00;2.80;;;21.60;72.80;;;;;;5039115;28;20192;-62
2023/06/07 01:45:06;;;;;;;3.10;2.90;;;21.60;72.80;;;;;;5045542;28;20195;-63
2023/06/07 01:47:34;;;;;;;3.33;3.03;;;21.60;72.80;;;;;;5048396;28;20215;-62
2023/06/07 01:50:00;;;;;;;3.40;3.10;;;21.60;72.80;;;;;;5038983;28;20563;-63
2023/06/07 01:52:27;;;;;;;2.55;2.35;;;21.60;72.80;;;;;;5052266;28;20249;-63
2023/06/07 01:54:55;;;;;;;2.60;2.40;;;21.60;72.80;;;;;;5052178;28;20192;-63
2023/06/07 01:57:29;;;;;;;2.83;2.53;;;21.60;72.80;;;;;;5040162;28;20378;-63
2023/06/07 02:00:09;;;;;;;2.20;2.00;;;21.60;72.80;;;;;;5048188;28;20282;-62
2023/06/07 02:02:49;;;;;;;2.75;2.50;;;21.60;72.80;;;;;;5046900;28;20444;-61
2023/06/07 02:05:19;;;;;;;3.10;2.90;;;21.60;72.80;;;;;;5050810;28;20521;-63
2023/06/07 02:07:50;;;;;;;2.80;2.60;;;21.60;72.90;;;;;;5048912;28;20737;-63
2023/06/07 02:10:20;;;;;;;3.15;2.85;;;21.60;72.80;;;;;;5049196;28;20211;-63
2023/06/07 02:12:47;;;;;;;2.70;2.50;;;21.60;72.80;;;;;;5037645;28;20210;-63
2023/06/07 02:15:15;;;;;;;4.10;3.35;;;21.60;72.80;;;;;;5045150;28;20195;-63
2023/06/07 02:17:57;;;;;;;4.53;3.40;;;21.60;72.80;;;;;;5050918;28;20687;-63
2023/06/07 02:20:24;;;;;;;3.35;3.13;;;21.60;72.80;;;;;;5047808;28;20193;-63
2023/06/07 02:22:51;;;;;;;2.88;2.67;;;21.60;72.80;;;;;;5049150;28;20199;-63
2023/06/07 02:25:18;;;;;;;2.72;2.53;;;21.60;72.80;;;;;;5054035;28;20633;-63
2023/06/07 02:27:44;;;;;;;2.58;2.38;;;21.60;72.80;;;;;;5049070;28;20249;-63
2023/06/07 02:30:12;;;;;;;4.88;2.60;;;21.60;72.80;;;;;;5050687;28;20222;-62
2023/06/07 02:32:40;;;;;;;2.25;2.00;;;21.60;72.80;;;;;;5049943;28;20222;-63
2023/06/07 02:35:08;;;;;;;2.75;2.55;;;21.60;72.80;;;;;;5051840;28;20677;-63
2023/06/07 02:37:35;;;;;;;3.13;2.92;;;21.60;72.80;;;;;;5046206;28;20583;-63
2023/06/07 02:40:02;;;;;;;3.47;3.17;;;21.60;72.80;;;;;;5044009;28;20202;-62
2023/06/07 02:42:28;;;;;;;3.28;2.58;;;21.60;72.80;;;;;;5047251;28;20219;-63
2023/06/07 02:44:55;;;;;;;3.33;3.00;;;21.60;72.80;;;;;;5042297;28;20265;-63
2023/06/07 02:47:22;;;;;;;3.03;2.40;;;21.60;72.80;;;;;;5045679;28;20203;-63
2023/06/07 02:49:50;;;;;;;3.05;2.60;;;21.60;72.80;;;;;;5038764;28;20195;-63
2023/06/07 02:52:16;;;;;;;2.42;2.28;;;21.60;72.80;;;;;;5047633;28;20204;-63
2023/06/07 02:54:43;;;;;;;2.20;2.00;;;21.60;72.80;;;;;;5049421;28;20210;-63
2023/06/07 02:57:09;;;;;;;3.40;3.10;;;21.60;72.80;;;;;;5050475;28;20198;-62
2023/06/07 02:59:39;;;;;;;2.78;2.58;;;21.50;72.70;;;;;;5047618;28;20227;-63
2023/06/07 03:02:06;;;;;;;3.22;2.95;;;21.50;72.70;;;;;;5044862;28;20645;-62
2023/06/07 03:04:33;;;;;;;3.10;2.80;;;21.60;72.80;;;;;;5045274;28;20567;-63
2023/06/07 03:07:02;;;;;;;2.45;2.25;;;21.50;72.70;;;;;;5051425;28;20309;-63
2023/06/07 03:09:28;;;;;;;2.70;2.50;;;21.60;72.80;;;;;;5048579;28;20208;-63
2023/06/07 03:11:55;;;;;;;2.60;2.40;;;21.50;72.70;;;;;;5051009;28;20545;-63
2023/06/07 03:14:23;;;;;;;2.88;2.67;;;21.60;72.80;;;;;;5044468;28;20675;-61
2023/06/07 03:16:49;;;;;;;2.60;2.40;;;21.60;72.80;;;;;;5048341;28;20242;-63
2023/06/07 03:19:16;;;;;;;3.33;3.00;;;21.60;72.80;;;;;;5045820;28;20215;-63
2023/06/07 03:21:44;;;;;;;2.33;2.13;;;21.50;72.60;;;;;;5046996;28;20195;-62
2023/06/07 03:24:12;;;;;;;2.25;2.05;;;21.50;72.70;;;;;;5046132;28;20695;-63
2023/06/07 03:26:39;;;;;;;3.45;2.65;;;21.60;72.80;;;;;;5049399;28;20725;-63
2023/06/07 03:29:06;;;;;;;3.38;3.08;;;21.60;72.80;;;;;;5042606;28;20290;-62
2023/06/07 03:31:33;;;;;;;3.17;2.87;;;21.60;72.80;;;;;;5047624;28;20199;-63
2023/06/07 03:34:00;;;;;;;2.60;2.40;;;21.50;72.70;;;;;;5046181;28;20466;-63
2023/06/07 03:36:28;;;;;;;2.67;2.45;;;21.60;72.80;;;;;;5050482;28;20249;-63
2023/06/07 03:38:55;;;;;;;2.92;2.63;;;21.60;72.80;;;;;;5048030;28;20211;-63
2023/06/07 03:41:23;;;;;;;2.55;2.35;;;21.50;73.40;;;;;;5043553;28;20648;-61
2023/06/07 03:43:50;;;;;;;2.83;2.63;;;21.50;72.70;;;;;;5039520;28;20206;-62
2023/06/07 03:46:17;;;;;;;3.47;3.20;;;21.60;72.80;;;;;;5051322;28;20572;-61
2023/06/07 03:48:43;;;;;;;3.40;2.75;;;21.60;72.80;;;;;;5040964;28;20199;-63
2023/06/07 03:51:10;;;;;;;3.42;3.13;;;21.50;72.70;;;;;;5052918;28;20206;-63
2023/06/07 03:53:37;;;;;;;2.35;2.15;;;21.50;72.70;;;;;;5048610;28;20195;-63
2023/06/07 03:56:04;;;;;;;2.63;2.42;;;21.50;72.70;;;;;;5050461;28;20348;-63
2023/06/07 03:58:32;;;;;;;2.92;2.72;;;21.50;72.70;;;;;;5049751;28;20630;-63
2023/06/07 04:00:58;;;;;;;2.33;2.20;;;21.50;72.70;;;;;;5037324;28;20198;-63
2023/06/07 04:03:27;;;;;;;2.30;2.10;;;21.50;72.70;;;;;;5039254;28;20204;-63
2023/06/07 04:05:53;;;;;;;2.50;2.22;;;21.50;72.70;;;;;;5042419;28;20288;-63
2023/06/07 04:08:20;;;;;;;2.95;2.75;;;21.50;72.70;;;;;;5042034;28;20235;-63
2023/06/07 04:10:47;;;;;;;2.25;2.05;;;21.50;72.70;;;;;;5052038;28;20215;-63
2023/06/07 04:13:14;;;;;;;3.15;2.60;;;21.50;72.70;;;;;;5048535;28;20554;-63
2023/06/07 04:15:43;;;;;;;3.28;2.97;;;21.50;72.70;;;;;;5041352;28;20196;-62
2023/06/07 04:18:09;;;;;;;3.58;3.28;;;21.50;72.70;;;;;;5048613;28;20230;-62
2023/06/07 04:20:36;;;;;;;2.40;2.20;;;21.50;72.70;;;;;;5051724;28;20207;-63
2023/06/07 04:23:03;;;;;;;2.67;2.45;;;21.50;72.70;;;;;;5049143;28;20888;-63
2023/06/07 04:25:33;;;;;;;2.55;2.35;;;21.50;72.70;;;;;;5045253;28;20705;-63
2023/06/07 04:28:00;;;;;;;3.10;2.80;;;21.50;73.40;;;;;;5053523;28;20253;-63
2023/06/07 04:30:34;;;;;;;2.72;2.53;;;21.50;72.70;;;;;;5040694;28;20691;-62
2023/06/07 04:33:04;;;;;;;2.40;2.20;;;21.50;73.40;;;;;;5040345;28;20204;-62
2023/06/07 04:35:31;;;;;;;2.25;2.05;;;21.50;72.70;;;;;;5049845;28;20717;-62
2023/06/07 04:38:01;;;;;;;2.72;2.53;;;21.50;72.70;;;;;;5045901;28;20283;-62
2023/06/07 04:40:28;;;;;;;2.38;2.17;;;21.50;72.70;;;;;;5045794;28;20231;-63
2023/06/07 04:43:04;;;;;;;2.75;2.17;;;21.50;72.70;;;;;;5040605;28;20677;-64
2023/06/07 04:45:31;;;;;;;2.67;2.47;;;21.50;72.70;;;;;;5047504;28;20200;-63
2023/06/07 04:47:58;;;;;;;2.35;2.10;;;21.50;72.60;;;;;;5047289;28;20203;-63
2023/06/07 04:50:28;;;;;;;3.20;2.90;;;21.50;72.70;;;;;;5043430;28;20195;-64
2023/06/07 04:53:00;;;;;;;2.00;1.88;;;21.50;72.70;;;;;;5048798;28;20549;-61
2023/06/07 04:55:29;;;;;;;3.72;2.70;;;21.50;72.70;;;;;;5041099;28;20192;-63
2023/06/07 04:57:55;;;;;;;2.42;2.22;;;21.50;72.70;;;;;;5044941;28;20290;-64
2023/06/07 05:00:24;;;;;;;5.15;2.40;;;21.50;72.70;;;;;;5045387;28;20227;-63
2023/06/07 05:02:52;;;;;;;2.33;2.13;;;21.50;72.70;;;;;;5050424;28;20245;-63
2023/06/07 05:05:19;;;;;;;2.90;2.65;;;21.50;72.70;;;;;;5045203;28;20190;-63
2023/06/07 05:07:49;;;;;;;2.83;2.53;;;21.50;72.70;;;;;;5054271;28;20630;-64
2023/06/07 05:10:16;;;;;;;3.10;2.90;;;21.50;72.60;;;;;;5046418;28;20199;-61
2023/06/07 05:12:43;;;;;;;2.78;2.58;;;21.50;72.70;;;;;;5041147;28;20658;-63
2023/06/07 05:15:10;;;;;;;2.60;2.40;;;21.50;72.70;;;;;;5044537;28;20210;-62
2023/06/07 05:17:38;;;;;;;2.83;2.50;;;21.50;72.70;;;;;;5047018;28;20230;-62
2023/06/07 05:20:10;;;;;;;2.80;2.60;;;21.50;72.70;;;;;;5047023;28;20219;-63
2023/06/07 05:22:38;;;;;;;2.80;2.50;;;21.50;72.70;;;;;;5041092;28;20558;-63
2023/06/07 05:25:08;;;;;;;2.42;2.22;;;21.50;72.70;;;;;;5043383;28;20253;-63
2023/06/07 05:27:35;;;;;;;2.65;2.45;;;21.50;72.70;;;;;;5046871;28;20278;-63
2023/06/07 05:30:03;;;;;;;2.67;2.47;;;21.50;72.70;;;;;;5045948;28;20252;-62
2023/06/07 05:32:30;;;;;;;2.60;2.40;;;21.50;72.70;;;;;;5049486;28;20458;-63
2023/06/07 05:34:57;;;;;;;3.17;2.97;;;21.50;72.70;;;;;;5046455;28;20199;-63
2023/06/07 05:37:28;;;;;;;2.20;1.95;;;21.50;72.70;;;;;;5052828;28;20245;-64
2023/06/07 05:39:54;;;;;;;2.45;2.25;;;21.50;72.70;;;;;;5045721;28;20222;-63
2023/06/07 05:42:23;;;;;;;2.30;2.10;;;21.50;72.70;;;;;;5048440;28;20575;-63
2023/06/07 05:44:50;;;;;;;2.80;2.60;;;21.50;72.70;;;;;;5051676;28;20213;-63
2023/06/07 05:47:17;;;;;;;2.45;2.25;;;21.50;72.70;;;;;;5049317;28;20204;-61
2023/06/07 05:49:44;;;;;;;3.00;2.50;;;21.50;72.70;;;;;;5054677;28;20552;-62
2023/06/07 05:52:13;;;;;;;2.35;2.15;;;21.50;72.80;;;;;;5052042;28;20204;-61
2023/06/07 05:54:41;;;;;;;2.53;2.33;;;21.50;73.20;;;;;;5049767;28;20211;-62
2023/06/07 05:57:07;;;;;;;3.55;1.60;;;21.50;73.30;;;;;;5049260;28;20257;-62
2023/06/07 05:59:35;;;;;;;2.13;1.92;;;21.50;73.40;;;;;;5045222;28;20253;-63
2023/06/07 06:02:02;;;;;;;3.00;2.70;;;21.50;73.50;;;;;;5036239;28;20204;-61
2023/06/07 06:04:29;;;;;;;2.83;2.60;;;21.50;73.40;;;;;;5043502;28;20203;-62
2023/06/07 06:06:56;;;;;;;2.28;1.95;;;21.50;73.90;;;;;;5051336;28;20197;-63
2023/06/07 06:09:23;;;;;;;3.25;2.30;;;21.50;73.90;;;;;;5047992;28;20215;-63
2023/06/07 06:11:50;;;;;;;2.58;2.17;;;21.50;73.90;;;;;;5047985;28;20688;-64
2023/06/07 06:14:16;;;;;;;3.28;2.72;;;21.50;74.90;;;;;;5048364;28;20238;-62
2023/06/07 06:16:44;;;;;;;3.00;2.25;;;21.50;74.00;;;;;;5044407;28;20397;-65
2023/06/07 06:19:11;;;;;;;2.60;2.35;;;21.50;74.20;;;;;;5044835;28;20231;-64
2023/06/07 06:21:38;;;;;;;2.55;2.25;;;21.50;74.10;;;;;;5043140;28;20562;-64
2023/06/07 06:24:05;;;;;;;2.45;2.25;;;21.50;74.20;;;;;;5046473;28;20251;-63
2023/06/07 06:26:32;;;;;;;3.45;2.67;;;21.50;74.20;;;;;;5043214;28;20192;-64
2023/06/07 06:28:59;;;;;;;2.40;2.30;;;21.50;74.30;;;;;;5040805;28;20277;-64
2023/06/07 06:31:26;;;;;;;2.45;2.25;;;21.50;74.30;;;;;;5044634;28;20187;-64
2023/06/07 06:33:54;;;;;;;3.55;2.40;;;21.50;74.50;;;;;;5036777;28;20196;-64
2023/06/07 06:36:21;;;;;;;4.32;2.75;;;21.50;74.60;;;;;;5044737;28;20203;-64
2023/06/07 06:38:48;;;;;;;2.92;2.50;;;21.50;74.70;;;;;;5046638;28;20773;-63
2023/06/07 06:41:14;;;;;;;2.50;2.30;;;21.50;74.80;;;;;;5049289;28;20234;-64
2023/06/07 06:43:41;;;;;;;6.13;2.90;;;21.50;74.60;;;;;;5042593;28;20196;-64
2023/06/07 06:46:08;;;;;;;3.13;2.63;;;21.50;74.60;;;;;;5050618;28;20198;-63
2023/06/07 06:48:35;;;;;;;3.13;2.20;;;21.50;74.70;;;;;;5042784;28;20207;-65
2023/06/07 06:51:03;;;;;;;2.55;2.35;;;21.50;74.70;;;;;;5048590;28;20211;-64
2023/06/07 06:53:30;;;;;;;2.65;2.35;;;21.50;74.80;;;;;;5047954;28;20208;-64
2023/06/07 06:55:57;;;;;;;2.25;2.05;;;21.50;74.80;;;;;;5053605;28;20195;-64
2023/06/07 06:58:24;;;;;;;2.10;1.92;;;21.50;74.60;;;;;;5044586;28;20200;-63
2023/06/07 07:00:50;;;;;;;3.03;2.72;;;21.50;74.80;;;;;;5038603;28;20227;-64
2023/06/07 07:03:17;;;;;;;2.80;2.60;;;21.50;74.80;;;;;;5046866;28;20207;-65
2023/06/07 07:05:44;;;;;;;2.83;2.63;;;21.50;74.90;;;;;;5050391;28;20594;-64
2023/06/07 07:08:12;;;;;;;2.88;2.58;;;21.50;75.00;;;;;;5045148;28;20686;-63
2023/06/07 07:10:38;;;;;;;8.90;4.43;;;21.50;74.90;;;;;;5048815;28;20204;-63
2023/06/07 07:13:05;;;;;;;4.53;3.53;;;21.50;74.90;;;;;;5037941;28;20647;-64
2023/06/07 07:15:32;;;;;;;5.30;3.92;;;21.50;75.90;;;;;;5039116;28;20206;-64
2023/06/07 07:17:58;;;;;;;4.43;3.40;;;21.50;75.90;;;;;;5007066;28;1034402;-65
2023/06/07 07:20:25;;;;;;;3.40;3.20;;;21.50;76.50;;;;;;5045114;28;20532;-64
2023/06/07 07:22:52;;;;;;;3.15;2.85;;;21.50;75.60;;;;;;5043393;28;20196;-65
2023/06/07 07:25:20;;;;;;;4.30;2.70;;;21.50;75.70;;;;;;5046888;28;20246;-64
2023/06/07 07:27:47;;;;;;;3.25;3.05;;;21.50;75.70;;;;;;5041138;28;20196;-64
2023/06/07 07:30:15;;;;;;;2.60;2.40;;;21.50;75.50;;;;;;5042200;28;20215;-65
2023/06/07 07:32:41;;;;;;;2.97;2.70;;;21.50;75.50;;;;;;5047860;28;20283;-64
2023/06/07 07:35:08;;;;;;;5.10;3.00;;;21.50;75.40;;;;;;5043411;28;21008;-64
2023/06/07 07:37:35;;;;;;;4.18;3.00;;;21.50;75.40;;;;;;5046957;28;20195;-63
2023/06/07 07:40:03;;;;;;;3.20;2.42;;;21.50;75.40;;;;;;5047082;28;20219;-63
2023/06/07 07:42:31;;;;;;;2.63;2.42;;;21.50;75.50;;;;;;5042565;28;20204;-63
2023/06/07 07:44:58;;;;;;;3.07;2.87;;;21.50;75.40;;;;;;5046880;28;20192;-65
2023/06/07 07:47:25;;;;;;;3.65;3.30;;;21.50;75.50;;;;;;5041621;28;20454;-64
2023/06/07 07:49:52;;;;;;;3.40;2.90;;;21.50;75.70;;;;;;5042909;28;20293;-66
2023/06/07 07:52:19;;;;;;;4.68;3.13;;;21.50;75.60;;;;;;5048612;28;20299;-64
2023/06/07 07:54:46;;;;;;;5.45;2.80;;;21.50;75.80;;;;;;5043114;28;20603;-65
2023/06/07 07:57:12;;;;;;;3.55;2.65;;;21.50;75.80;;;;;;5051571;28;20659;-64
2023/06/07 07:59:40;;;;;;;6.75;2.95;;;21.50;75.90;;;;;;5038694;28;20304;-68
2023/06/07 08:02:07;;;;;;;6.10;2.80;;;21.50;75.90;;;;;;5045063;28;20339;-69
2023/06/07 08:04:34;;;;;;;3.47;3.17;;;21.50;75.80;;;;;;5032192;28;20827;-63
2023/06/07 08:07:01;;;;;;;3.80;3.10;;;21.50;76.00;;;;;;5045503;28;20784;-70
2023/06/07 08:09:27;;;;;;;4.03;2.92;;;21.50;76.40;;;;;;5044241;28;20545;-71
2023/06/07 08:11:54;;;;;;;9.02;7.03;;;21.50;76.30;;;;;;5046998;28;20192;-71
2023/06/07 08:14:21;;;;;;;15.13;6.93;;;21.50;77.70;;;;;;5049320;28;20204;-69
2023/06/07 08:16:49;;;;;;;8.55;4.22;;;21.50;78.10;;;;;;5047277;28;20205;-71
2023/06/07 08:19:15;;;;;;;7.70;3.92;;;21.50;78.10;;;;;;5049216;28;20229;-71
2023/06/07 08:21:43;;;;;;;6.93;4.05;;;21.50;78.10;;;;;;5052109;28;20203;-71
2023/06/07 08:24:11;;;;;;;4.72;3.70;;;21.50;77.90;;;;;;5047516;28;20224;-61
2023/06/07 08:26:37;;;;;;;3.78;3.47;;;21.50;77.80;;;;;;5045396;28;20257;-71
2023/06/07 08:29:05;;;;;;;3.25;2.95;;;21.50;77.80;;;;;;5045793;28;20192;-71
2023/06/07 08:31:31;;;;;;;3.22;2.92;;;21.50;77.60;;;;;;5044809;28;20199;-70
2023/06/07 08:33:59;;;;;;;4.85;3.30;;;21.50;77.30;;;;;;5045800;28;20195;-70
2023/06/07 08:36:26;;;;;;;4.13;3.75;;;21.50;77.50;;;;;;5043994;28;20203;-71
2023/06/07 08:38:53;;;;;;;3.75;3.17;;;21.50;77.20;;;;;;5049103;28;20199;-64
2023/06/07 08:41:19;;;;;;;3.60;3.17;;;21.50;77.20;;;;;;5047897;28;20249;-71
2023/06/07 08:43:49;;;;;;;6.95;4.10;;;21.50;77.10;;;;;;5047592;28;20245;-71
2023/06/07 08:46:17;;;;;;;5.32;2.92;;;21.50;77.10;;;;;;5036496;28;20194;-71
2023/06/07 08:48:45;;;;;;;5.68;4.38;;;21.50;77.00;;;;;;5047589;28;20275;-71
2023/06/07 08:51:14;;;;;;;5.03;3.83;;;21.50;77.10;;;;;;5046384;28;20203;-69
2023/06/07 08:53:47;;;;;;;5.35;3.25;;;21.50;77.00;;;;;;5046642;28;20196;-70
2023/06/07 08:56:15;;;;;;;5.32;3.00;;;21.50;76.90;;;;;;5042651;28;20278;-69
2023/06/07 08:58:42;;;;;;;4.38;3.67;;;21.50;77.00;;;;;;5047334;28;20664;-71
2023/06/07 09:01:09;;;;;;;5.45;3.53;;;21.50;76.80;;;;;;5047844;28;20614;-71
2023/06/07 09:03:35;;;;;;;5.60;3.50;;;21.50;76.80;;;;;;5044417;28;20265;-70
2023/06/07 09:06:02;;;;;;;5.70;3.97;;;21.50;76.80;;;;;;5049461;28;20469;-71
2023/06/07 09:08:31;;;;;;;3.40;3.10;;;21.50;76.80;;;;;;5049992;28;20249;-71
2023/06/07 09:10:57;;;;;;;4.35;2.70;;;21.50;76.80;;;;;;5044905;28;20238;-68
2023/06/07 09:13:25;;;;;;;2.65;2.45;;;21.50;76.80;;;;;;5047639;28;20194;-71
2023/06/07 09:15:53;;;;;;;4.28;3.88;;;21.50;76.70;;;;;;5036103;28;20199;-70
2023/06/07 09:18:20;;;;;;;3.00;2.80;;;21.50;76.70;;;;;;5047570;28;20212;-70
2023/06/07 09:20:47;;;;;;;3.55;3.25;;;21.50;76.70;;;;;;5049476;28;20480;-66
2023/06/07 09:23:14;;;;;;;5.07;3.03;;;21.50;76.70;;;;;;5047015;28;20663;-69
2023/06/07 09:25:44;;;;;;;4.53;3.15;;;21.50;76.60;;;;;;5050629;28;20248;-70
2023/06/07 09:28:13;;;;;;;3.40;3.10;;;21.50;76.70;;;;;;5044126;28;21247;-70
2023/06/07 09:30:54;;;;;;;3.00;2.80;;;21.50;76.60;;;;;;5048806;28;20826;-68
2023/06/07 09:33:28;;;;;;;3.47;2.90;;;21.50;76.60;;;;;;5043963;28;20451;-71
2023/06/07 09:36:06;;;;;;;3.70;3.00;;;21.50;76.60;;;;;;5043955;28;20455;-66
2023/06/07 09:38:33;;;;;;;3.55;3.25;;;21.50;76.30;;;;;;5038709;28;20453;-73
2023/06/07 09:41:02;;;;;;;3.67;3.13;;;21.50;76.80;;;;;;5049497;28;20211;-71
2023/06/07 09:43:42;;;;;;;4.40;3.35;;;21.50;77.60;;;;;;5038963;28;20473;-70
2023/06/07 09:46:08;;;;;;;4.73;3.50;;;21.50;76.90;;;;;;5038421;28;20203;-74
2023/06/07 09:48:44;;;;;;;6.47;3.50;;;21.50;77.10;;;;;;5036376;28;20454;-66
2023/06/07 09:51:11;;;;;;;5.90;3.47;;;21.50;77.00;;;;;;5036113;28;20208;-68
2023/06/07 09:53:51;;;;;;;7.13;3.60;;;21.50;77.00;;;;;;5035468;28;20639;-68
2023/06/07 09:56:20;;;;;;;6.10;2.80;;;21.50;77.00;;;;;;5024492;28;20192;-66
2023/06/07 09:58:49;;;;;;;5.22;3.40;;;21.50;77.00;;;;;;5032059;28;20571;-69
2023/06/07 10:01:16;;;;;;;3.63;3.33;;;21.50;76.80;;;;;;5017091;28;20813;-66
2023/06/07 10:03:47;;;;;;;2.95;2.75;;;21.50;76.80;;;;;;5031833;28;20226;-69
2023/06/07 10:06:15;;;;;;;3.58;2.80;;;21.50;76.60;;;;;;5022159;28;20250;-69
2023/06/07 10:08:43;;;;;;;3.47;3.17;;;21.50;76.70;;;;;;5038372;28;20766;-66
2023/06/07 10:11:12;;;;;;;3.60;3.23;;;21.50;76.80;;;;;;5040040;28;20462;-68
2023/06/07 10:13:40;;;;;;;4.40;3.10;;;21.50;77.00;;;;;;5048067;28;20469;-70
2023/06/07 10:16:10;;;;;;;4.20;3.90;;;21.50;76.90;;;;;;5041384;28;20457;-69
2023/06/07 10:18:41;;;;;;;3.40;3.10;;;21.50;76.70;;;;;;5037864;28;20211;-69
2023/06/07 10:21:15;;;;;;;5.95;2.53;;;21.50;77.00;;;;;;5046024;28;21069;-69
2023/06/07 10:23:47;;;;;;;2.67;2.30;;;21.50;77.00;;;;;;5043816;28;20584;-70
2023/06/07 10:26:22;;;;;;;7.68;3.75;;;21.50;77.10;;;;;;5032757;28;20458;-70
2023/06/07 10:28:57;;;;;;;3.47;3.17;;;21.50;77.10;;;;;;5042722;28;20282;-68
2023/06/07 10:31:31;;;;;;;6.03;2.95;;;21.50;77.20;;;;;;5051801;28;20456;-66
2023/06/07 10:33:59;;;;;;;5.80;3.38;;;21.50;77.10;;;;;;5041898;28;20201;-67
2023/06/07 10:36:27;;;;;;;4.05;3.50;;;21.60;77.30;;;;;;5039957;28;20302;-68
2023/06/07 10:38:56;;;;;;;4.28;3.00;;;21.50;77.30;;;;;;5048418;28;20457;-67
2023/06/07 10:41:23;;;;;;;2.78;2.58;;;21.50;77.30;;;;;;5044227;28;20269;-66
2023/06/07 10:43:51;;;;;;;3.53;3.03;;;21.50;77.30;;;;;;5044338;28;20192;-69
2023/06/07 10:46:23;;;;;;;3.20;2.90;;;21.60;77.50;;;;;;5016548;28;20476;-66
2023/06/07 10:48:50;;;;;;;3.08;2.60;;;21.60;77.50;;;;;;5029669;28;20460;-70
2023/06/07 10:51:17;;;;;;;3.28;2.97;;;21.60;77.60;;;;;;5045671;28;20204;-68
2023/06/07 10:53:49;;;;;;;4.35;2.85;;;21.60;77.70;;;;;;5046352;28;20689;-69
2023/06/07 10:56:30;;;;;;;5.73;2.87;;;21.50;77.50;;;;;;5035022;28;20210;-69
2023/06/07 10:59:19;;;;;;;5.37;2.80;;;21.50;77.50;;;;;;5042604;28;20464;-68
2023/06/07 11:01:48;;;;;;;3.27;2.97;;;21.50;77.50;;;;;;5044091;28;20493;-70
2023/06/07 11:04:48;;;;;;;3.20;2.90;;;21.50;77.60;;;;;;5043903;28;21076;-69
2023/06/07 11:07:19;;;;;;;3.00;2.80;;;21.50;77.70;;;;;;5047170;28;20291;-69
2023/06/07 11:09:46;;;;;;;8.00;3.40;;;21.50;77.60;;;;;;5041943;28;20692;-70
2023/06/07 11:12:46;;;;;;;3.05;2.80;;;21.50;77.60;;;;;;5045976;28;21010;-70
2023/06/07 11:15:30;;;;;;;4.18;3.17;;;21.50;77.70;;;;;;5042577;28;20203;-69
2023/06/07 11:17:57;;;;;;;3.92;2.50;;;21.60;77.90;;;;;;5047570;28;20199;-68
2023/06/07 11:20:49;;;;;;;2.70;2.43;;;21.60;77.80;;;;;;5042523;28;20448;-69
2023/06/07 11:23:21;;;;;;;3.05;2.85;;;21.60;78.10;;;;;;5045178;28;20513;-70
2023/06/07 11:25:48;;;;;;;4.00;3.25;;;21.60;78.10;;;;;;5049696;28;20294;-69
2023/06/07 11:28:15;;;;;;;3.58;2.55;;;21.60;78.00;;;;;;5040409;28;20283;-67
2023/06/07 11:30:44;;;;;;;3.22;2.95;;;21.50;77.90;;;;;;5048996;28;20609;-70
2023/06/07 11:33:15;;;;;;;2.58;2.38;;;21.60;78.00;;;;;;5041545;28;20202;-65
2023/06/07 11:35:42;;;;;;;3.67;3.30;;;21.50;77.90;;;;;;5048384;28;20214;-68
2023/06/07 11:38:08;;;;;;;3.17;2.83;;;21.60;78.10;;;;;;5038888;28;20577;-66
2023/06/07 11:40:35;;;;;;;3.08;2.88;;;21.60;78.10;;;;;;5035436;28;20216;-69
2023/06/07 11:43:03;;;;;;;2.85;2.65;;;21.60;78.10;;;;;;5038467;28;20254;-69
2023/06/07 11:45:31;;;;;;;3.78;3.00;;;21.60;78.10;;;;;;5037788;28;20627;-69
2023/06/07 11:48:01;;;;;;;3.15;2.85;;;21.60;78.20;;;;;;5038375;28;20194;-68
2023/06/07 11:50:28;;;;;;;3.92;2.55;;;21.60;78.20;;;;;;5037970;28;20210;-69
2023/06/07 11:52:55;;;;;;;2.70;2.50;;;21.60;78.20;;;;;;5040437;28;20194;-68
2023/06/07 11:55:22;;;;;;;2.88;2.65;;;21.60;78.20;;;;;;5041041;28;20953;-69
2023/06/07 11:57:52;;;;;;;3.38;3.08;;;21.60;78.20;;;;;;5041981;28;20253;-70
2023/06/07 12:00:20;;;;;;;2.83;2.50;;;21.60;78.30;;;;;;5033259;28;20563;-65
2023/06/07 12:02:48;;;;;;;2.95;2.67;;;21.60;78.20;;;;;;5036380;28;20200;-68
2023/06/07 12:05:17;;;;;;;3.17;2.88;;;21.60;78.40;;;;;;5036373;28;20200;-69
2023/06/07 12:07:45;;;;;;;6.38;3.33;;;21.60;78.30;;;;;;5046368;28;20192;-69
2023/06/07 12:10:12;;;;;;;5.20;3.00;;;21.60;78.40;;;;;;5044033;28;20199;-68
2023/06/07 12:12:40;;;;;;;3.05;2.70;;;21.60;78.50;;;;;;5050163;28;20195;-66
2023/06/07 12:15:07;;;;;;;3.30;3.10;;;21.60;78.40;;;;;;5046609;28;20238;-70
2023/06/07 12:17:35;;;;;;;3.42;2.67;;;21.60;78.50;;;;;;5045275;28;20278;-67
2023/06/07 12:20:11;;;;;;;3.28;2.97;;;21.60;78.50;;;;;;5052780;28;20195;-69
2023/06/07 12:22:39;;;;;;;3.83;3.03;;;21.60;78.60;;;;;;5042788;28;20223;-69
2023/06/07 12:25:10;;;;;;;3.67;3.38;;;21.60;78.60;;;;;;5044781;28;20480;-68
2023/06/07 12:27:37;;;;;;;3.70;2.80;;;21.60;79.40;;;;;;5049418;28;20290;-69
2023/06/07 12:30:06;;;;;;;2.80;2.33;;;21.60;78.90;;;;;;5038767;28;20245;-64
2023/06/07 12:32:33;;;;;;;2.77;2.57;;;21.60;78.80;;;;;;5042021;28;20858;-69
2023/06/07 12:35:02;;;;;;;2.67;2.45;;;21.60;78.90;;;;;;5040778;28;20875;-68
2023/06/07 12:37:30;;;;;;;3.10;2.80;;;21.60;78.90;;;;;;5046795;28;20511;-68
2023/06/07 12:39:58;;;;;;;2.40;2.20;;;21.60;79.00;;;;;;5043719;28;20890;-68
2023/06/07 12:42:25;;;;;;;3.65;3.35;;;21.60;79.00;;;;;;5047145;28;20485;-66
2023/06/07 12:44:54;;;;;;;4.27;3.10;;;21.60;79.00;;;;;;5042443;28;20195;-66
2023/06/07 12:47:21;;;;;;;3.83;3.40;;;21.60;79.20;;;;;;5044333;28;20458;-68
2023/06/07 12:49:48;;;;;;;4.35;2.80;;;21.60;79.20;;;;;;5046214;28;20192;-68
2023/06/07 12:52:14;;;;;;;3.87;3.57;;;21.60;79.50;;;;;;5047083;28;20203;-64